createdAt,value
2019-05-30T00:02:14.097Z,10.70
2019-05-30T00:04:42.741Z,10.70
2019-05-30T00:07:12.731Z,10.70
2019-05-30T00:09:45.973Z,10.80
2019-05-30T00:12:16.205Z,10.80
2019-05-30T00:14:48.332Z,10.70
2019-05-30T00:17:18.952Z,10.70
2019-05-30T00:19:48.876Z,10.80
2019-05-30T00:22:26.583Z,10.70
2019-05-30T00:25:00.052Z,10.70
2019-05-30T00:27:30.463Z,10.70
2019-05-30T00:30:01.375Z,10.70
2019-05-30T00:32:31.628Z,10.70
2019-05-30T00:35:02.111Z,10.70
2019-05-30T00:37:32.177Z,10.70
2019-05-30T00:40:02.300Z,10.70
2019-05-30T00:42:32.354Z,10.60
2019-05-30T00:45:08.897Z,10.60
2019-05-30T00:47:34.021Z,10.60
2019-05-30T00:50:04.477Z,10.60
2019-05-30T00:52:34.484Z,10.60
2019-05-30T00:55:04.761Z,10.60
2019-05-30T00:57:34.843Z,10.60
2019-05-30T01:00:06.985Z,10.60
2019-05-30T01:02:37.209Z,10.60
2019-05-30T01:05:08.079Z,10.60
2019-05-30T01:07:38.169Z,10.60
2019-05-30T01:10:09.705Z,10.60
2019-05-30T01:12:39.709Z,10.60
2019-05-30T01:15:10.546Z,10.60
2019-05-30T01:17:40.511Z,10.50
2019-05-30T01:20:10.993Z,10.60
2019-05-30T01:22:40.897Z,10.50
2019-05-30T01:25:11.105Z,10.50
2019-05-30T01:27:41.066Z,10.50
2019-05-30T01:30:11.528Z,10.40
2019-05-30T01:32:41.436Z,10.40
2019-05-30T01:35:12.305Z,10.40
2019-05-30T01:37:42.274Z,10.40
2019-05-30T01:40:12.410Z,10.40
2019-05-30T01:42:42.301Z,10.40
2019-05-30T01:45:14.276Z,10.40
2019-05-30T01:47:44.260Z,10.30
2019-05-30T01:50:14.552Z,10.30
2019-05-30T01:52:44.453Z,10.40
2019-05-30T01:55:14.403Z,10.40
2019-05-30T01:57:44.565Z,10.40
2019-05-30T02:00:20.819Z,10.40
2019-05-30T02:02:46.777Z,10.40
2019-05-30T02:05:16.901Z,10.40
2019-05-30T02:07:46.862Z,10.40
2019-05-30T02:10:17.861Z,10.40
2019-05-30T02:12:47.887Z,10.40
2019-05-30T02:15:17.929Z,10.30
2019-05-30T02:17:47.952Z,10.30
2019-05-30T02:20:19.523Z,10.30
2019-05-30T02:22:49.450Z,10.20
2019-05-30T02:25:19.634Z,10.20
2019-05-30T02:27:49.528Z,10.20
2019-05-30T02:30:19.771Z,10.20
2019-05-30T02:32:49.753Z,10.20
2019-05-30T02:35:20.214Z,10.20
2019-05-30T02:37:50.387Z,10.10
2019-05-30T02:40:21.383Z,10.20
2019-05-30T02:42:51.313Z,10.20
2019-05-30T02:45:21.280Z,10.20
2019-05-30T02:47:51.343Z,10.20
2019-05-30T02:50:21.967Z,10.30
2019-05-30T02:52:52.126Z,10.30
2019-05-30T02:55:22.005Z,10.30
2019-05-30T02:57:52.209Z,10.20
2019-05-30T03:00:32.554Z,10.20
2019-05-30T03:03:03.951Z,10.30
2019-05-30T03:05:34.649Z,10.20
2019-05-30T03:08:06.711Z,10.30
2019-05-30T03:10:36.739Z,10.30
2019-05-30T03:13:08.394Z,10.30
2019-05-30T03:15:39.521Z,10.30
2019-05-30T03:18:10.488Z,10.30
2019-05-30T03:20:41.182Z,10.30
2019-05-30T03:23:14.050Z,10.30
2019-05-30T03:25:42.855Z,10.40
2019-05-30T03:28:13.689Z,10.40
2019-05-30T03:30:45.107Z,10.40
2019-05-30T03:33:32.212Z,10.50
2019-05-30T03:35:47.211Z,10.50
2019-05-30T03:38:17.715Z,10.60
2019-05-30T03:40:47.970Z,10.70
2019-05-30T03:43:17.930Z,11.00
2019-05-30T03:45:48.046Z,11.40
2019-05-30T03:48:20.646Z,11.90
2019-05-30T03:50:52.796Z,12.30
2019-05-30T03:53:23.121Z,12.80
2019-05-30T03:56:02.345Z,13.10
2019-05-30T03:58:43.924Z,13.30
2019-05-30T04:01:18.622Z,13.60
2019-05-30T04:04:00.020Z,14.00
2019-05-30T04:06:33.853Z,14.40
2019-05-30T04:09:09.677Z,14.50
2019-05-30T04:11:43.833Z,14.40
2019-05-30T04:14:19.365Z,14.30
2019-05-30T04:16:49.982Z,14.40
2019-05-30T04:19:20.191Z,14.70
2019-05-30T04:21:52.676Z,14.90
2019-05-30T04:24:22.706Z,15.20
2019-05-30T04:26:52.834Z,15.20
2019-05-30T04:29:22.731Z,14.80
2019-05-30T04:31:52.863Z,14.60
2019-05-30T04:34:22.861Z,14.70
2019-05-30T04:36:53.612Z,14.90
2019-05-30T04:39:24.377Z,15.30
2019-05-30T04:41:54.581Z,15.70
2019-05-30T04:44:24.535Z,16.00
2019-05-30T04:46:54.847Z,16.30
2019-05-30T04:49:24.855Z,16.50
2019-05-30T04:51:54.874Z,16.80
2019-05-30T04:54:24.867Z,17.00
2019-05-30T04:59:24.217Z,17.80
2019-05-30T05:01:54.430Z,17.90
2019-05-30T05:04:24.243Z,17.70
2019-05-30T05:06:54.344Z,17.70
2019-05-30T05:09:24.467Z,17.20
2019-05-30T05:12:01.110Z,16.60
2019-05-30T05:14:31.585Z,16.10
2019-05-30T05:17:02.047Z,15.70
2019-05-30T05:19:32.275Z,15.50
2019-05-30T05:22:15.540Z,15.40
2019-05-30T05:24:45.636Z,15.30
2019-05-30T05:27:15.730Z,15.20
2019-05-30T05:29:45.547Z,15.10
2019-05-30T05:32:16.191Z,15.00
2019-05-30T05:34:46.277Z,15.10
2019-05-30T05:37:17.049Z,15.10
2019-05-30T05:39:47.079Z,15.20
2019-05-30T05:42:18.063Z,15.30
2019-05-30T05:44:47.952Z,15.40
2019-05-30T05:47:18.469Z,15.50
2019-05-30T05:49:48.476Z,15.60
2019-05-30T05:52:18.840Z,15.70
2019-05-30T05:54:48.810Z,15.80
2019-05-30T05:57:18.906Z,16.00
2019-05-30T05:59:49.017Z,16.00
2019-05-30T06:02:23.123Z,16.10
2019-05-30T06:04:53.328Z,16.30
2019-05-30T06:07:24.575Z,16.40
2019-05-30T06:09:55.001Z,16.30
2019-05-30T06:12:25.761Z,16.40
2019-05-30T06:14:58.642Z,16.60
2019-05-30T06:17:29.334Z,16.80
2019-05-30T06:19:59.565Z,16.90
2019-05-30T06:22:29.574Z,17.00
2019-05-30T06:25:00.713Z,17.20
2019-05-30T06:27:30.694Z,17.30
2019-05-30T06:30:01.009Z,17.50
2019-05-30T06:32:37.097Z,17.70
2019-05-30T06:35:04.662Z,18.20
2019-05-30T06:37:34.834Z,19.00
2019-05-30T06:40:06.566Z,20.00
2019-05-30T06:42:37.091Z,20.60
2019-05-30T06:45:15.029Z,21.30
2019-05-30T06:47:45.180Z,21.40
2019-05-30T06:50:15.632Z,21.30
2019-05-30T06:52:45.630Z,21.10
2019-05-30T06:56:00.186Z,20.70
2019-05-30T06:58:01.084Z,20.40
2019-05-30T07:00:36.498Z,19.90
2019-05-30T07:03:07.746Z,20.00
2019-05-30T07:05:40.975Z,20.20
2019-05-30T07:08:11.474Z,20.40
2019-05-30T07:10:45.582Z,20.60
2019-05-30T07:13:15.692Z,20.80
2019-05-30T07:15:54.920Z,21.30
2019-05-30T07:18:56.837Z,21.80
2019-05-30T07:22:11.558Z,22.80
2019-05-30T07:24:43.531Z,23.10
2019-05-30T07:27:20.599Z,23.10
2019-05-30T07:30:10.565Z,22.90
2019-05-30T07:32:43.805Z,22.60
2019-05-30T07:35:14.261Z,22.10
2019-05-30T07:37:59.127Z,21.90
2019-05-30T07:40:40.966Z,21.50
2019-05-30T07:43:15.199Z,21.20
2019-05-30T07:45:57.392Z,21.20
2019-05-30T07:48:23.376Z,21.10
2019-05-30T07:51:05.870Z,21.00
2019-05-30T07:53:45.358Z,20.90
2019-05-30T07:56:41.883Z,20.90
2019-05-30T07:59:48.281Z,20.70
2019-05-30T08:03:23.959Z,20.60
2019-05-30T08:10:39.060Z,21.40
2019-05-30T08:14:29.019Z,21.40
2019-05-30T08:18:09.276Z,21.20
2019-05-30T08:22:12.728Z,20.40
2019-05-30T08:36:42.353Z,19.50
2019-05-30T09:31:58.857Z,23.80
2019-05-30T09:41:22.170Z,26.60
2019-05-30T09:48:30.047Z,27.50
2019-05-30T09:51:51.372Z,26.70
2019-05-30T09:54:57.746Z,26.10
2019-05-30T10:12:45.566Z,22.40
2019-05-30T10:16:05.146Z,22.00
2019-05-30T10:37:39.673Z,20.70
2019-05-30T10:40:23.720Z,20.50
2019-05-30T10:42:55.091Z,20.40
2019-05-30T10:45:33.362Z,20.60
2019-05-30T10:48:07.781Z,20.80
2019-05-30T10:50:48.552Z,20.90
2019-05-30T10:53:26.147Z,21.00
2019-05-30T10:55:56.528Z,20.90
2019-05-30T10:58:32.216Z,20.90
2019-05-30T11:01:07.068Z,20.80
2019-05-30T11:03:37.456Z,20.90
2019-05-30T11:06:18.180Z,21.00
2019-05-30T11:08:50.851Z,20.90
2019-05-30T11:11:21.178Z,20.90
2019-05-30T11:13:51.364Z,20.70
2019-05-30T11:16:21.294Z,20.80
2019-05-30T11:18:53.147Z,20.80
2019-05-30T11:21:23.279Z,20.80
2019-05-30T11:23:54.404Z,20.80
2019-05-30T11:26:24.488Z,21.00
2019-05-30T11:28:55.003Z,20.90
2019-05-30T11:31:25.448Z,20.90
2019-05-30T11:34:05.816Z,20.80
2019-05-30T11:36:39.236Z,20.80
2019-05-30T11:39:11.085Z,21.00
2019-05-30T11:41:43.687Z,21.30
2019-05-30T11:44:13.734Z,21.50
2019-05-30T11:46:47.375Z,21.80
2019-05-30T11:49:19.317Z,22.20
2019-05-30T11:51:51.712Z,22.30
2019-05-30T11:54:25.256Z,22.40
2019-05-30T11:56:56.154Z,22.70
2019-05-30T11:59:29.306Z,23.20
2019-05-30T12:02:02.242Z,23.90
2019-05-30T12:04:32.618Z,24.10
2019-05-30T12:07:05.813Z,23.90
2019-05-30T12:09:37.953Z,23.90
2019-05-30T12:12:09.316Z,24.20
2019-05-30T12:14:42.353Z,24.30
2019-05-30T12:17:12.443Z,24.20
2019-05-30T12:19:44.424Z,24.20
2019-05-30T12:22:14.407Z,23.90
2019-05-30T12:24:47.183Z,23.60
2019-05-30T12:27:17.489Z,23.30
2019-05-30T12:29:54.709Z,23.10
2019-05-30T12:32:30.920Z,22.70
2019-05-30T12:35:02.797Z,22.40
2019-05-30T12:37:54.223Z,22.50
2019-05-30T12:40:13.195Z,22.80
2019-05-30T12:42:43.172Z,23.10
2019-05-30T12:45:24.044Z,23.10
2019-05-30T12:48:01.295Z,22.90
2019-05-30T12:50:32.962Z,22.70
2019-05-30T12:53:03.166Z,22.50
2019-05-30T12:55:38.656Z,22.40
2019-05-30T12:58:10.718Z,22.30
2019-05-30T13:00:44.140Z,22.30
2019-05-30T13:03:19.477Z,22.30
2019-05-30T13:05:55.167Z,22.30
2019-05-30T13:08:29.977Z,22.30
2019-05-30T13:11:01.543Z,22.00
2019-05-30T13:13:34.451Z,21.80
2019-05-30T13:16:20.085Z,21.60
2019-05-30T13:19:12.047Z,21.50
2019-05-30T13:21:59.715Z,21.50
2019-05-30T13:24:30.446Z,21.50
2019-05-30T13:27:01.793Z,21.40
2019-05-30T13:29:33.085Z,21.30
2019-05-30T13:32:09.629Z,21.30
2019-05-30T13:34:43.093Z,21.30
2019-05-30T13:37:21.889Z,21.20
2019-05-30T13:39:57.055Z,21.30
2019-05-30T13:42:28.318Z,21.40
2019-05-30T13:44:59.631Z,21.60
2019-05-30T13:47:32.004Z,21.60
2019-05-30T13:50:09.026Z,21.60
2019-05-30T13:52:37.946Z,21.60
2019-05-30T13:55:13.678Z,21.60
2019-05-30T13:57:43.778Z,21.80
2019-05-30T14:00:17.451Z,22.00
2019-05-30T14:02:52.989Z,22.20
2019-05-30T14:05:32.473Z,22.20
2019-05-30T14:08:09.599Z,22.30
2019-05-30T14:10:39.565Z,22.40
2019-05-30T14:13:15.133Z,22.40
2019-05-30T14:15:47.713Z,22.30
2019-05-30T14:18:20.773Z,22.20
2019-05-30T14:20:57.633Z,22.30
2019-05-30T14:23:27.948Z,22.30
2019-05-30T14:26:03.175Z,22.10
2019-05-30T14:32:43.512Z,21.60
2019-05-30T14:35:19.370Z,21.60
2019-05-30T14:37:53.034Z,21.50
2019-05-30T14:40:24.354Z,21.30
2019-05-30T14:43:05.502Z,21.20
2019-05-30T14:45:42.244Z,21.00
2019-05-30T14:48:12.587Z,20.80
2019-05-30T14:50:50.071Z,20.70
2019-05-30T14:53:20.175Z,20.80
2019-05-30T14:55:53.348Z,21.00
2019-05-30T14:58:27.283Z,21.10
2019-05-30T15:01:11.154Z,21.00
2019-05-30T15:03:43.090Z,20.90
2019-05-30T15:06:15.949Z,20.80
2019-05-30T15:08:46.311Z,20.90
2019-05-30T15:11:19.521Z,21.10
2019-05-30T15:13:57.599Z,21.20
2019-05-30T15:16:35.710Z,21.30
2019-05-30T15:19:12.385Z,21.40
2019-05-30T15:21:57.487Z,21.30
2019-05-30T15:24:27.770Z,21.20
2019-05-30T15:27:02.955Z,21.20
2019-05-30T15:29:36.003Z,21.10
2019-05-30T15:32:08.198Z,21.30
2019-05-30T15:34:59.549Z,21.50
2019-05-30T15:37:42.551Z,21.80
2019-05-30T15:47:41.026Z,22.20
2019-05-30T15:50:28.127Z,22.00
2019-05-30T15:53:17.259Z,22.00
2019-05-30T15:56:11.116Z,22.20
2019-05-30T15:58:43.151Z,22.20
2019-05-30T16:02:08.055Z,22.10
2019-05-30T16:05:02.420Z,21.90
2019-05-30T16:07:44.058Z,21.70
2019-05-30T16:10:16.958Z,21.50
2019-05-30T16:12:47.797Z,21.20
2019-05-30T16:15:30.405Z,20.90
2019-05-30T16:18:04.384Z,20.70
2019-05-30T16:20:38.937Z,20.50
2019-05-30T16:23:12.735Z,20.40
2019-05-30T16:25:47.740Z,20.40
2019-05-30T16:28:19.784Z,20.40
2019-05-30T16:31:44.386Z,20.40
2019-05-30T16:34:24.805Z,20.50
2019-05-30T16:37:01.015Z,20.50
2019-05-30T16:39:31.590Z,20.50
2019-05-30T16:42:09.663Z,20.40
2019-05-30T16:44:39.999Z,20.40
2019-05-30T16:47:22.496Z,20.30
2019-05-30T16:50:53.778Z,20.20
2019-05-30T16:57:09.028Z,20.00
2019-05-30T16:59:53.149Z,20.00
2019-05-30T17:20:34.058Z,20.10
2019-05-30T17:30:21.582Z,20.50
2019-05-30T17:37:15.275Z,20.30
2019-05-30T17:40:35.141Z,20.30
2019-05-30T17:42:59.716Z,20.20
2019-05-30T17:45:30.068Z,20.00
2019-05-30T17:48:16.367Z,19.90
2019-05-30T17:52:06.967Z,19.90
2019-05-30T17:54:46.695Z,19.80
2019-05-30T17:57:19.972Z,19.70
2019-05-30T18:03:49.211Z,19.50
2019-05-30T18:06:20.386Z,19.50
2019-05-30T18:08:55.946Z,19.50
2019-05-30T18:11:42.313Z,19.50
2019-05-30T18:14:15.856Z,19.50
2019-05-30T18:16:47.107Z,19.50
2019-05-30T18:19:17.141Z,19.50
2019-05-30T18:21:47.160Z,19.40
2019-05-30T18:24:17.755Z,19.40
2019-05-30T18:26:48.588Z,19.40
2019-05-30T18:29:26.060Z,19.40
2019-05-30T18:31:56.165Z,19.40
2019-05-30T18:34:26.523Z,19.40
2019-05-30T18:36:56.699Z,19.40
2019-05-30T18:39:26.737Z,19.30
2019-05-30T18:41:56.723Z,19.20
2019-05-30T18:44:28.799Z,19.20
2019-05-30T18:46:58.387Z,19.10
2019-05-30T18:49:29.118Z,19.00
2019-05-30T18:51:59.577Z,19.00
2019-05-30T18:54:30.660Z,19.00
2019-05-30T18:57:00.991Z,18.90
2019-05-30T18:59:39.024Z,18.80
2019-05-30T19:02:09.033Z,18.80
2019-05-30T19:04:42.643Z,18.80
2019-05-30T19:07:12.748Z,18.80
2019-05-30T19:09:43.225Z,18.80
2019-05-30T19:12:13.326Z,18.80
2019-05-30T19:14:43.510Z,18.70
2019-05-30T19:17:13.529Z,18.60
2019-05-30T19:19:43.513Z,18.60
2019-05-30T19:22:13.650Z,18.60
2019-05-30T19:24:44.031Z,18.60
2019-05-30T19:27:14.136Z,18.60
2019-05-30T19:29:44.156Z,18.50
2019-05-30T19:32:14.112Z,18.50
2019-05-30T19:34:44.509Z,18.50
2019-05-30T19:37:14.590Z,18.50
2019-05-30T19:39:44.490Z,18.50
2019-05-30T19:42:14.326Z,18.50
2019-05-30T19:44:44.368Z,18.40
2019-05-30T19:47:14.336Z,18.40
2019-05-30T19:49:44.760Z,18.20
2019-05-30T19:52:14.903Z,18.00
2019-05-30T19:54:48.925Z,17.80
2019-05-30T19:58:01.461Z,17.70
2019-05-30T20:00:57.895Z,17.50
2019-05-30T20:03:35.714Z,17.40
2019-05-30T20:06:01.595Z,17.30
2019-05-30T20:09:03.242Z,17.20
2019-05-30T20:11:35.226Z,17.10
2019-05-30T20:14:15.072Z,17.10
2019-05-30T20:16:45.232Z,17.00
2019-05-30T20:19:15.367Z,17.00
2019-05-30T20:22:26.110Z,16.90
2019-05-30T20:25:16.004Z,16.80
2019-05-30T20:28:18.778Z,16.70
2019-05-30T20:30:57.201Z,16.70
2019-05-30T20:36:34.461Z,16.60
2019-05-30T20:39:05.894Z,16.50
2019-05-30T20:41:36.855Z,16.50
2019-05-30T20:44:12.421Z,16.50
2019-05-30T20:46:53.777Z,16.50
2019-05-30T20:52:33.333Z,16.40
2019-05-30T20:55:13.867Z,16.40
2019-05-30T20:58:00.570Z,16.30
2019-05-30T21:03:58.140Z,16.30
2019-05-30T21:06:57.097Z,16.30
2019-05-30T21:09:44.205Z,16.30
2019-05-30T21:12:37.966Z,16.30
2019-05-30T21:15:33.068Z,16.40
2019-05-30T21:18:21.829Z,16.40
2019-05-30T21:20:56.822Z,16.40
2019-05-30T21:23:40.316Z,16.40
2019-05-30T21:26:36.765Z,16.40
2019-05-30T21:29:11.129Z,16.40
2019-05-30T21:31:54.996Z,16.40
2019-05-30T21:34:35.482Z,16.50
2019-05-30T21:37:47.909Z,16.30
2019-05-30T21:40:02.019Z,16.30
2019-05-30T21:43:03.063Z,16.30
2019-05-30T21:45:26.053Z,16.40
2019-05-30T21:48:04.804Z,16.40
2019-05-30T21:50:45.480Z,16.30
2019-05-30T21:53:19.957Z,16.30
2019-05-30T21:56:12.985Z,16.30
2019-05-30T21:58:46.670Z,16.30
2019-05-30T22:01:42.641Z,16.30
2019-05-30T22:05:12.121Z,15.50
2019-05-30T22:07:47.248Z,16.30
2019-05-30T22:10:43.315Z,16.30
2019-05-30T22:13:27.520Z,16.40
2019-05-30T22:16:18.018Z,16.40
2019-05-30T22:18:56.524Z,16.50
2019-05-30T22:21:39.292Z,16.60
2019-05-30T22:24:17.068Z,16.60
2019-05-30T22:26:52.626Z,16.60
2019-05-30T22:29:27.075Z,16.50
2019-05-30T22:32:05.800Z,16.50
2019-05-30T22:34:44.999Z,16.40
2019-05-30T22:37:23.038Z,16.40
2019-05-30T22:39:58.526Z,16.40
2019-05-30T22:42:30.644Z,16.30
2019-05-30T22:45:03.687Z,16.30
2019-05-30T22:47:32.699Z,16.20
2019-05-30T22:50:02.830Z,16.20
2019-05-30T22:52:33.010Z,16.20
2019-05-30T22:55:03.367Z,16.20
2019-05-30T22:57:36.638Z,16.20
2019-05-30T23:00:07.757Z,16.20
2019-05-30T23:02:37.914Z,16.30
2019-05-30T23:05:07.994Z,16.40
2019-05-30T23:07:39.581Z,16.50
2019-05-30T23:10:09.930Z,16.60
2019-05-30T23:12:39.930Z,16.70
2019-05-30T23:15:13.230Z,16.80
2019-05-30T23:17:43.378Z,16.90
2019-05-30T23:20:16.592Z,16.90
2019-05-30T23:22:46.813Z,17.00
2019-05-30T23:25:17.037Z,17.10
2019-05-30T23:27:47.474Z,17.10
2019-05-30T23:30:17.902Z,17.00
2019-05-30T23:32:48.234Z,17.10
2019-05-30T23:35:22.036Z,17.10
2019-05-30T23:37:53.208Z,17.10
2019-05-30T23:40:23.243Z,17.20
2019-05-30T23:42:53.526Z,17.30
2019-05-30T23:45:23.668Z,17.30
2019-05-30T23:47:53.728Z,17.30
2019-05-30T23:50:23.942Z,17.30
2019-05-30T23:52:54.083Z,17.30
2019-05-30T23:55:24.376Z,17.30
2019-05-30T23:57:54.631Z,17.20
